Time;durP1;ratioP1;P1;durP2;ratioP2;P2;SDS_P1;SDS_P2;PMS_P1;PMS_P2;Temp;Humidity;BMP_temperature;BMP_pressure;BME280_temperature;BME280_humidity;BME280_pressure;Samples;Min_cycle;Max_cycle;Signal;HPM_P1;HPM_P2
2022/08/01 00:00:48;;;;;;;7.30;2.60;;;;;;;12.05;100.00;99609.54;105011;1271;73137;-71
2022/08/01 00:03:36;;;;;;;7.60;2.90;;;;;;;12.03;100.00;99612.50;104994;1271;67617;-70
2022/08/01 00:06:24;;;;;;;8.20;2.50;;;;;;;12.02;100.00;99612.66;105070;1271;73329;-71
2022/08/01 00:09:15;;;;;;;6.90;2.70;;;;;;;12.00;100.00;99612.25;105113;1271;59707;-71
2022/08/01 00:12:13;;;;;;;8.20;2.50;;;;;;;12.00;100.00;99610.33;104956;1271;60832;-72
2022/08/01 00:15:03;;;;;;;8.40;2.80;;;;;;;11.99;100.00;99610.96;105139;1271;74122;-72
2022/08/01 00:17:51;;;;;;;7.00;2.30;;;;;;;11.97;100.00;99607.67;105035;1271;68134;-72
2022/08/01 00:20:39;;;;;;;6.40;2.20;;;;;;;11.97;100.00;99609.20;104932;1271;72881;-74
2022/08/01 00:23:28;;;;;;;8.20;2.70;;;;;;;11.93;100.00;99605.89;105282;1271;60870;-72
2022/08/01 00:26:16;;;;;;;7.00;2.20;;;;;;;11.91;100.00;99605.31;105219;1271;60894;-73
2022/08/01 00:29:03;;;;;;;7.00;2.50;;;;;;;11.91;100.00;99606.29;105102;1271;73265;-73
2022/08/01 00:31:58;;;;;;;7.50;2.60;;;;;;;11.90;100.00;99600.64;105069;1271;68149;-72
2022/08/01 00:34:46;;;;;;;7.20;2.50;;;;;;;11.89;100.00;99601.27;105241;1271;73971;-73
2022/08/01 00:37:36;;;;;;;6.20;2.30;;;;;;;11.88;100.00;99600.67;104978;1271;60619;-71
2022/08/01 00:40:24;;;;;;;6.00;2.10;;;;;;;11.88;100.00;99595.20;104854;1271;59600;-74
2022/08/01 00:43:12;;;;;;;7.50;2.40;;;;;;;11.88;100.00;99593.88;105193;1271;71950;-73
2022/08/01 00:46:00;;;;;;;5.90;2.40;;;;;;;11.87;100.00;99589.73;105221;1271;68654;-73
2022/08/01 00:48:48;;;;;;;6.50;2.50;;;;;;;11.87;100.00;99590.27;105116;1271;73499;-73
2022/08/01 00:51:36;;;;;;;7.40;2.50;;;;;;;11.86;100.00;99584.11;105023;1271;60267;-73
2022/08/01 00:54:26;;;;;;;6.80;2.70;;;;;;;11.86;100.00;99584.14;105285;1271;59706;-72
2022/08/01 00:57:14;;;;;;;8.50;2.70;;;;;;;11.85;100.00;99584.98;105252;1271;73217;-70
2022/08/01 01:00:15;;;;;;;7.00;2.90;;;;;;;11.83;100.00;99580.84;104967;1271;68443;-72
2022/08/01 01:03:04;;;;;;;6.90;2.40;;;;;;;11.81;100.00;99582.66;104886;1271;73335;-72
2022/08/01 01:06:07;;;;;;;6.90;2.70;;;;;;;11.79;100.00;99582.17;104790;1273;59724;-72
2022/08/01 01:09:10;;;;;;;8.40;2.50;;;;;;;11.76;100.00;99585.96;105010;1271;60949;-72
2022/08/01 01:12:19;;;;;;;6.50;2.40;;;;;;;11.73;100.00;99587.84;104997;1271;72435;-72
2022/08/01 01:15:44;;;;;;;7.40;2.40;;;;;;;11.72;100.00;99587.33;105248;1271;66586;-75
2022/08/01 01:18:51;;;;;;;6.60;2.60;;;;;;;11.73;100.00;99583.40;105150;1271;72896;-71
2022/08/01 01:21:42;;;;;;;6.80;2.60;;;;;;;11.73;100.00;99582.87;104892;1271;61258;-72
2022/08/01 01:24:55;;;;;;;6.30;2.50;;;;;;;11.72;100.00;99581.45;105108;1271;60735;-72
2022/08/01 01:28:09;;;;;;;8.00;2.70;;;;;;;11.72;100.00;99579.16;104774;1271;72431;-72
2022/08/01 01:30:59;;;;;;;5.90;2.30;;;;;;;11.71;100.00;99580.30;105019;1271;68109;-72
2022/08/01 01:33:50;;;;;;;8.20;2.60;;;;;;;11.69;100.00;99581.39;104782;1271;72633;-74
2022/08/01 01:36:39;;;;;;;7.20;2.50;;;;;;;11.68;100.00;99579.33;104883;1271;61244;-75
2022/08/01 01:39:29;;;;;;;7.80;2.80;;;;;;;11.69;100.00;99577.84;104814;1273;59629;-69
2022/08/01 01:42:24;;;;;;;8.70;3.00;;;;;;;11.68;100.00;99576.87;104861;1271;71664;-70
2022/08/01 01:45:13;;;;;;;6.40;2.50;;;;;;;11.67;100.00;99574.52;104989;1271;68512;-72
2022/08/01 01:48:03;;;;;;;7.00;2.20;;;;;;;11.66;100.00;99571.59;105102;1271;74377;-73
2022/08/01 01:50:52;;;;;;;6.50;2.50;;;;;;;11.64;100.00;99572.46;104882;1273;59765;-70
2022/08/01 01:53:41;;;;;;;6.70;3.00;;;;;;;11.63;100.00;99575.59;105106;1271;61981;-73
2022/08/01 01:56:30;;;;;;;6.80;2.60;;;;;;;11.63;100.00;99578.61;104867;1273;74750;-72
2022/08/01 01:59:24;;;;;;;6.50;2.30;;;;;;;11.63;100.00;99573.98;104826;1271;68113;-73
2022/08/01 02:02:15;;;;;;;6.20;2.30;;;;;;;11.62;100.00;99571.61;105137;1271;74420;-72
2022/08/01 02:05:08;;;;;;;7.10;2.60;;;;;;;11.60;100.00;99572.60;104849;1274;60019;-73
2022/08/01 02:07:56;;;;;;;7.10;2.50;;;;;;;11.60;100.00;99575.27;104993;1272;62104;-72
2022/08/01 02:11:17;;;;;;;6.50;2.50;;;;;;;11.60;100.00;99571.25;104996;1271;74803;-74
2022/08/01 02:14:03;;;;;;;7.00;2.70;;;;;;;11.58;100.00;99573.30;104918;1271;66850;-72
2022/08/01 02:16:53;;;;;;;6.90;2.90;;;;;;;11.58;100.00;99575.27;104877;1271;74664;-71
2022/08/01 02:19:41;;;;;;;8.10;2.80;;;;;;;11.58;100.00;99570.51;104938;1272;59698;-71
2022/08/01 02:22:40;;;;;;;6.90;2.60;;;;;;;11.57;100.00;99568.77;104900;1271;62057;-73
2022/08/01 02:25:39;;;;;;;8.20;3.40;;;;;;;11.56;100.00;99568.32;105073;1271;74875;-73
2022/08/01 02:28:59;;;;;;;8.80;3.00;;;;;;;11.54;100.00;99568.69;105086;1273;69502;-72
2022/08/01 02:31:48;;;;;;;6.60;2.70;;;;;;;11.53;100.00;99567.58;104929;1272;74388;-73
2022/08/01 02:34:36;;;;;;;7.70;3.10;;;;;;;11.52;100.00;99572.23;104954;1271;60276;-70
2022/08/01 02:37:26;;;;;;;9.40;3.10;;;;;;;11.53;100.00;99573.24;104804;1274;60555;-70
2022/08/01 02:40:17;;;;;;;9.90;3.30;;;;;;;11.52;100.00;99570.80;104879;1273;71787;-72
2022/08/01 02:43:06;;;;;;;7.60;2.80;;;;;;;11.52;100.00;99571.88;104776;1274;67573;-72
2022/08/01 02:46:01;;;;;;;10.40;3.60;;;;;;;11.52;100.00;99572.07;105047;1273;73417;-71
2022/08/01 02:48:53;;;;;;;8.10;3.50;;;;;;;11.52;100.00;99570.11;104985;1271;59728;-71
2022/08/01 02:51:43;;;;;;;7.60;3.30;;;;;;;11.53;100.00;99567.05;104961;1271;61567;-71
2022/08/01 02:54:34;;;;;;;7.50;3.30;;;;;;;11.54;100.00;99567.78;105149;1271;72532;-71
2022/08/01 02:57:24;;;;;;;7.80;3.50;;;;;;;11.56;100.00;99566.19;104818;1271;68026;-71
2022/08/01 03:00:33;;;;;;;8.60;3.60;;;;;;;11.60;100.00;99565.88;104895;1271;73688;-72
2022/08/01 03:03:24;;;;;;;8.70;3.80;;;;;;;11.63;100.00;99567.23;104842;1271;61250;-71
2022/08/01 03:06:14;;;;;;;9.70;3.40;;;;;;;11.65;100.00;99568.44;104905;1273;59873;-71
2022/08/01 03:09:04;;;;;;;7.70;3.10;;;;;;;11.69;100.00;99569.34;104906;1272;74542;-70
2022/08/01 03:11:58;;;;;;;8.10;3.10;;;;;;;11.73;100.00;99566.11;105076;1271;69939;-72
2022/08/01 03:14:49;;;;;;;7.90;3.40;;;;;;;11.76;100.00;99564.21;104901;1274;74405;-72
2022/08/01 03:17:41;;;;;;;8.20;3.20;;;;;;;11.81;100.00;99565.93;104739;1273;60445;-72
2022/08/01 03:20:32;;;;;;;9.60;3.20;;;;;;;11.87;100.00;99563.81;105018;1271;61532;-74
2022/08/01 03:23:22;;;;;;;7.10;3.00;;;;;;;11.91;100.00;99559.50;104868;1273;73192;-74
2022/08/01 03:26:28;;;;;;;7.00;2.70;;;;;;;11.97;100.00;99559.06;105242;1271;68089;-73
2022/08/01 03:29:22;;;;;;;6.70;2.90;;;;;;;12.03;100.00;99560.82;105061;1273;71486;-73
2022/08/01 03:32:13;;;;;;;9.60;3.00;;;;;;;12.08;100.00;99555.15;104988;1273;60606;-75
2022/08/01 03:35:01;;;;;;;7.40;3.00;;;;;;;12.15;100.00;99555.90;105003;1271;61017;-74
2022/08/01 03:37:54;;;;;;;7.10;2.60;;;;;;;12.23;100.00;99560.92;105100;1271;73205;-72
2022/08/01 03:41:11;;;;;;;8.30;2.60;;;;;;;12.33;100.00;99566.19;105042;1272;68691;-74
2022/08/01 03:44:15;;;;;;;6.90;2.70;;;;;;;12.44;100.00;99567.35;105003;1271;74362;-74
2022/08/01 03:47:08;;;;;;;6.60;2.30;;;;;;;12.54;100.00;99568.14;104856;1273;59718;-70
2022/08/01 03:49:58;;;;;;;8.00;2.40;;;;;;;12.65;100.00;99571.27;105053;1273;60749;-73
2022/08/01 03:52:50;;;;;;;6.70;2.60;;;;;;;12.74;100.00;99575.70;105086;1271;74249;-74
2022/08/01 03:55:40;;;;;;;6.40;2.30;;;;;;;12.86;100.00;99584.60;104815;1273;68065;-73
2022/08/01 03:58:30;;;;;;;6.70;2.40;;;;;;;12.98;100.00;99587.52;104872;1273;72891;-72
2022/08/01 04:01:19;;;;;;;7.40;2.40;;;;;;;13.10;100.00;99586.42;104853;1271;61227;-73
2022/08/01 04:04:07;;;;;;;6.50;2.50;;;;;;;13.20;100.00;99588.23;105244;1271;59576;-73
2022/08/01 04:06:55;;;;;;;5.80;2.00;;;;;;;13.31;100.00;99585.29;105115;1271;73413;-75
2022/08/01 04:09:43;;;;;;;6.50;2.10;;;;;;;13.41;100.00;99585.24;105019;1272;69642;-75
2022/08/01 04:12:32;;;;;;;6.90;2.20;;;;;;;13.52;100.00;99584.52;104781;1273;71794;-72
2022/08/01 04:15:20;;;;;;;7.20;2.10;;;;;;;13.62;100.00;99583.53;104986;1271;59773;-76
2022/08/01 04:18:08;;;;;;;6.70;2.20;;;;;;;13.72;100.00;99581.02;105372;1271;59655;-76
2022/08/01 04:20:56;;;;;;;7.10;2.30;;;;;;;13.80;100.00;99579.77;105056;1271;73475;-76
2022/08/01 04:23:47;;;;;;;7.30;2.20;;;;;;;13.90;100.00;99580.50;104954;1271;68010;-75
2022/08/01 04:26:43;;;;;;;5.70;1.70;;;;;;;14.01;100.00;99574.19;105280;1272;72861;-75
2022/08/01 04:29:32;;;;;;;7.00;2.00;;;;;;;14.11;100.00;99573.30;105143;1272;59767;-75
2022/08/01 04:32:21;;;;;;;6.00;1.90;;;;;;;14.21;100.00;99572.58;104943;1271;59633;-75
2022/08/01 04:35:13;;;;;;;5.80;2.10;;;;;;;14.27;100.00;99574.13;104852;1273;71841;-75
2022/08/01 04:38:27;;;;;;;7.90;2.00;;;;;;;14.34;100.00;99573.08;105074;1271;67046;-73
2022/08/01 04:41:16;;;;;;;8.40;2.00;;;;;;;14.39;100.00;99573.25;105169;1271;71680;-75
2022/08/01 04:44:06;;;;;;;6.30;2.20;;;;;;;14.43;100.00;99575.53;105078;1271;59766;-73
2022/08/01 04:46:56;;;;;;;6.70;2.00;;;;;;;14.47;100.00;99576.36;105341;1271;60522;-73
2022/08/01 04:49:45;;;;;;;6.50;2.00;;;;;;;14.55;100.00;99572.66;105124;1271;73322;-75
2022/08/01 04:52:37;;;;;;;6.60;2.00;;;;;;;14.65;100.00;99572.39;105038;1271;68366;-75
2022/08/01 04:55:27;;;;;;;6.60;2.00;;;;;;;14.74;100.00;99574.39;104940;1273;74413;-74
2022/08/01 04:58:16;;;;;;;6.70;1.90;;;;;;;14.83;99.94;99575.18;105082;1271;60613;-74
2022/08/01 05:01:06;;;;;;;6.90;1.90;;;;;;;14.96;99.64;99576.95;105092;1271;60564;-74
2022/08/01 05:03:53;;;;;;;7.90;1.80;;;;;;;15.07;98.99;99584.31;105253;1271;73216;-74
2022/08/01 05:06:41;;;;;;;5.70;1.80;;;;;;;15.14;98.29;99583.40;105079;1271;68129;-73
2022/08/01 05:09:30;;;;;;;5.70;1.80;;;;;;;15.23;98.06;99585.92;104917;1271;72963;-76
2022/08/01 05:12:18;;;;;;;7.20;1.80;;;;;;;15.31;97.57;99582.34;105060;1271;59604;-74
2022/08/01 05:15:07;;;;;;;7.40;2.40;;;;;;;15.42;97.36;99587.17;105053;1271;62042;-74
2022/08/01 05:18:02;;;;;;;5.40;1.70;;;;;;;15.54;96.57;99581.08;105130;1271;74310;-74
2022/08/01 05:20:49;;;;;;;5.40;1.60;;;;;;;15.83;96.69;99583.73;105160;1274;65659;-73
2022/08/01 05:23:37;;;;;;;6.00;1.80;;;;;;;16.32;94.42;99577.02;105264;1271;72894;-74
2022/08/01 05:26:30;;;;;;;5.70;1.60;;;;;;;16.59;92.08;99576.17;105074;1271;258417;-74
2022/08/01 05:29:18;;;;;;;7.30;1.70;;;;;;;16.87;90.74;99578.07;105057;1271;60599;-76
2022/08/01 05:32:06;;;;;;;7.40;1.80;;;;;;;17.17;89.97;99581.79;105257;1271;73185;-74
2022/08/01 05:34:55;;;;;;;5.60;1.70;;;;;;;17.75;87.97;99583.38;105097;1274;68337;-75
2022/08/01 05:37:43;;;;;;;6.80;1.70;;;;;;;19.09;84.00;99573.80;105035;1271;71261;-74
2022/08/01 05:40:31;;;;;;;5.90;1.60;;;;;;;20.47;77.99;99563.90;105526;1271;60407;-72
2022/08/01 05:43:20;;;;;;;6.30;1.70;;;;;;;21.45;72.85;99565.58;105439;1271;59637;-78
2022/08/01 05:46:15;;;;;;;6.00;1.60;;;;;;;22.82;69.06;99554.46;105199;1271;73425;-80
2022/08/01 05:49:05;;;;;;;5.90;1.40;;;;;;;24.05;61.63;99550.12;105233;1273;68035;-80
2022/08/01 05:51:53;;;;;;;5.90;1.30;;;;;;;24.25;60.56;99552.99;104964;1272;73385;-76
2022/08/01 05:54:41;;;;;;;6.50;1.80;;;;;;;24.34;58.83;99549.82;105117;1272;59647;-79
2022/08/01 05:57:29;;;;;;;9.50;4.10;;;;;;;25.22;57.35;99547.61;105019;1273;61015;-78
2022/08/01 06:00:17;;;;;;;5.70;1.30;;;;;;;26.00;54.41;99544.54;105097;1271;73801;-79
2022/08/01 06:03:05;;;;;;;7.20;1.90;;;;;;;25.95;52.46;99544.34;105025;1273;68034;-79
2022/08/01 06:05:54;;;;;;;4.90;1.20;;;;;;;25.95;52.26;99540.58;105117;1271;72869;-77
2022/08/01 06:08:42;;;;;;;4.70;1.10;;;;;;;26.30;51.34;99540.04;105173;1271;59297;-78
2022/08/01 06:11:30;;;;;;;7.00;1.40;;;;;;;26.71;49.46;99532.52;105066;1271;59647;-79
2022/08/01 06:14:18;;;;;;;5.70;1.40;;;;;;;26.82;49.37;99535.32;105207;1271;73704;-77
2022/08/01 06:17:06;;;;;;;6.20;1.20;;;;;;;27.63;47.47;99535.66;105011;1273;68032;-79
2022/08/01 06:19:55;;;;;;;5.00;1.00;;;;;;;28.62;43.42;99535.73;104974;1271;71548;-79
2022/08/01 06:22:43;;;;;;;5.00;1.10;;;;;;;29.33;42.28;99535.73;105080;1272;59669;-77
2022/08/01 06:25:39;;;;;;;6.00;0.90;;;;;;;30.17;39.98;99537.31;105307;1271;59608;-78
2022/08/01 06:28:27;;;;;;;5.70;1.10;;;;;;;30.76;37.93;99535.66;105101;1271;73297;-77
2022/08/01 06:31:16;;;;;;;4.50;0.90;;;;;;;31.27;36.49;99531.85;104964;1271;68002;-79
2022/08/01 06:34:04;;;;;;;5.50;1.10;;;;;;;31.71;35.28;99529.30;105173;1271;72875;-80
2022/08/01 06:36:52;;;;;;;6.70;0.90;;;;;;;31.86;34.15;99526.67;105104;1274;59701;-79
2022/08/01 06:39:40;;;;;;;4.70;1.00;;;;;;;32.09;33.68;99530.28;104998;1273;61214;-79
2022/08/01 06:42:37;;;;;;;6.00;1.00;;;;;;;32.46;32.16;99529.43;105254;1273;73220;-77
2022/08/01 06:45:26;;;;;;;3.80;0.70;;;;;;;32.85;31.24;99532.46;105119;1273;69652;-77
2022/08/01 06:48:14;;;;;;;5.40;0.90;;;;;;;33.34;30.60;99530.74;105051;1271;71821;-80
2022/08/01 06:51:08;;;;;;;7.90;1.40;;;;;;;33.65;29.97;99526.55;105153;1271;59711;-79
2022/08/01 06:53:56;;;;;;;7.00;0.80;;;;;;;34.27;28.77;99527.98;105185;1271;60576;-79
2022/08/01 06:56:44;;;;;;;5.20;1.10;;;;;;;34.85;28.29;99524.86;105179;1271;73369;-79
2022/08/01 06:59:32;;;;;;;5.60;0.70;;;;;;;35.29;27.35;99522.47;105084;1271;68098;-80
2022/08/01 07:02:21;;;;;;;6.20;1.00;;;;;;;35.70;26.28;99518.08;104971;1271;72890;-80
2022/08/01 07:05:09;;;;;;;7.80;0.80;;;;;;;36.14;25.49;99513.13;104935;1271;59777;-80
2022/08/01 07:07:57;;;;;;;5.10;0.90;;;;;;;36.54;25.33;99512.69;105244;1271;59594;-79
2022/08/01 07:10:45;;;;;;;7.10;0.80;;;;;;;36.84;24.38;99514.48;105118;1272;73297;-79
2022/08/01 07:13:33;;;;;;;4.60;0.80;;;;;;;36.90;23.82;99515.70;105087;1271;68215;-78
2022/08/01 07:16:30;;;;;;;5.90;0.80;;;;;;;37.04;23.17;99517.78;105294;1273;71337;-77
2022/08/01 07:19:18;;;;;;;3.90;0.80;;;;;;;36.70;23.48;99521.92;105105;1273;59617;-77
2022/08/01 07:22:06;;;;;;;6.40;1.00;;;;;;;36.96;23.57;99518.67;105307;1273;60493;-78
2022/08/01 07:24:57;;;;;;;5.50;0.80;;;;;;;37.01;23.18;99520.95;105409;1271;73360;-78
2022/08/01 07:27:45;;;;;;;5.70;1.00;;;;;;;36.24;23.96;99518.44;105231;1271;69647;-76
2022/08/01 07:30:35;;;;;;;6.10;0.90;;;;;;;35.93;24.33;99515.13;105110;1271;74406;-78
2022/08/01 07:33:22;;;;;;;4.80;0.90;;;;;;;36.17;23.43;99513.85;104973;1271;59596;-77
2022/08/01 07:36:10;;;;;;;6.20;0.90;;;;;;;36.46;23.28;99516.17;105154;1271;61018;-78
2022/08/01 07:38:58;;;;;;;5.40;1.50;;;;;;;36.63;22.75;99514.85;105091;1271;73330;-80
2022/08/01 07:41:48;;;;;;;5.00;0.80;;;;;;;36.40;23.45;99516.39;105131;1271;68021;-79
2022/08/01 07:44:54;;;;;;;5.00;1.40;;;;;;;36.88;22.96;99517.66;105129;1271;72069;-76
2022/08/01 07:47:43;;;;;;;5.90;1.00;;;;;;;37.27;21.84;99516.81;105282;1271;59695;-75
2022/08/01 07:50:32;;;;;;;5.50;0.90;;;;;;;37.55;21.99;99512.02;105117;1271;59657;-78
2022/08/01 07:53:21;;;;;;;4.70;1.00;;;;;;;37.78;21.57;99516.87;105388;1271;73289;-79
2022/08/01 07:56:09;;;;;;;4.40;0.80;;;;;;;37.62;21.57;99511.96;105144;1271;69586;-79
2022/08/01 07:58:57;;;;;;;4.80;1.10;;;;;;;37.94;20.68;99510.13;105104;1272;74393;-79
2022/08/01 08:01:45;;;;;;;4.80;1.20;;;;;;;37.61;20.84;99505.76;105154;1271;59766;-78
2022/08/01 08:04:35;;;;;;;6.60;0.90;;;;;;;35.94;22.38;99506.73;105171;1271;60412;-77
2022/08/01 08:07:23;;;;;;;5.00;1.00;;;;;;;35.28;23.30;99512.96;105079;1271;71975;-79
2022/08/01 08:10:11;;;;;;;6.30;1.00;;;;;;;35.84;22.17;99502.42;105030;1273;69424;-78
2022/08/01 08:13:01;;;;;;;4.70;0.90;;;;;;;36.50;21.60;99508.27;105597;1273;73035;-78
2022/08/01 08:15:49;;;;;;;4.50;0.90;;;;;;;36.83;21.82;99505.96;105545;1271;59710;-78
2022/08/01 08:18:38;;;;;;;5.60;1.00;;;;;;;35.99;22.60;99504.13;105280;1271;60356;-78
2022/08/01 08:21:26;;;;;;;9.50;5.40;;;;;;;36.18;22.21;99506.48;105187;1274;73331;-79
2022/08/01 08:24:19;;;;;;;11.60;6.80;;;;;;;35.65;22.38;99506.52;105131;1271;68648;-78
2022/08/01 08:27:15;;;;;;;8.10;2.10;;;;;;;36.12;22.28;99505.46;105229;1271;72973;-76
2022/08/01 08:30:10;;;;;;;11.40;2.40;;;;;;;36.75;21.31;99507.33;105275;1274;59769;-77
2022/08/01 08:32:58;;;;;;;6.10;0.90;;;;;;;37.09;20.73;99506.19;104954;1271;60520;-75
2022/08/01 08:35:46;;;;;;;4.60;0.80;;;;;;;37.09;20.61;99506.48;105068;1271;72437;-77
2022/08/01 08:38:40;;;;;;;3.60;0.70;;;;;;;37.23;20.51;99498.80;105030;1273;66811;-78
2022/08/01 08:41:35;;;;;;;5.20;1.00;;;;;;;37.68;20.43;99499.89;105048;1272;72856;-77
2022/08/01 08:44:25;;;;;;;5.50;1.00;;;;;;;37.91;20.07;99506.98;105287;1271;59675;-77
2022/08/01 08:47:15;;;;;;;4.40;0.80;;;;;;;38.29;19.57;99508.25;105284;1273;59665;-80
2022/08/01 08:50:08;;;;;;;5.00;0.70;;;;;;;38.09;19.23;99509.29;105131;1271;74746;-75
2022/08/01 08:53:01;;;;;;;4.70;0.90;;;;;;;36.89;20.03;99510.81;105089;1271;68170;-78
2022/08/01 08:55:54;;;;;;;4.70;1.20;;;;;;;35.87;21.47;99511.42;104990;1271;74435;-77
2022/08/01 08:58:45;;;;;;;7.00;1.50;;;;;;;36.05;21.78;99508.67;105014;1271;59855;-75
2022/08/01 09:01:34;;;;;;;6.40;1.00;;;;;;;36.79;20.72;99511.61;105358;1271;59694;-75
2022/08/01 09:04:23;;;;;;;6.50;0.90;;;;;;;37.46;19.76;99512.05;105075;1271;72248;-76
2022/08/01 09:07:14;;;;;;;4.60;0.70;;;;;;;37.81;19.14;99509.89;105096;1271;66994;-76
2022/08/01 09:10:04;;;;;;;5.20;0.90;;;;;;;37.51;18.87;99508.47;105214;1271;72871;-76
2022/08/01 09:13:14;;;;;;;5.70;1.00;;;;;;;37.42;19.55;99506.02;105574;1271;61168;-76
2022/08/01 09:16:04;;;;;;;5.50;0.90;;;;;;;37.57;19.30;99502.33;105182;1271;60848;-74
2022/08/01 09:18:52;;;;;;;4.60;0.80;;;;;;;37.46;19.22;99503.41;105143;1271;74098;-77
2022/08/01 09:21:58;;;;;;;5.10;0.80;;;;;;;37.34;19.37;99507.63;105148;1271;68127;-76
2022/08/01 09:25:09;;;;;;;6.00;0.90;;;;;;;37.69;19.56;99506.33;105341;1271;74357;-79
2022/08/01 09:28:06;;;;;;;5.40;1.00;;;;;;;37.99;19.18;99507.72;105047;1271;59710;-73
2022/08/01 09:30:56;;;;;;;5.10;1.10;;;;;;;38.26;18.74;99506.04;105548;1271;60945;-75
2022/08/01 09:33:55;;;;;;;8.10;2.80;;;;;;;38.54;18.61;99506.42;105292;1271;74731;-76
2022/08/01 09:36:58;;;;;;;7.20;1.80;;;;;;;38.66;17.97;99509.94;105330;1273;68884;-78
2022/08/01 09:39:54;;;;;;;4.00;0.90;;;;;;;38.64;17.42;99505.55;105814;1271;73007;-76
2022/08/01 09:42:51;;;;;;;4.70;0.90;;;;;;;38.33;17.70;99504.75;105374;1271;59678;-76
2022/08/01 09:45:39;;;;;;;5.70;1.20;;;;;;;38.35;17.63;99502.83;105250;1274;60536;-75
2022/08/01 09:48:32;;;;;;;5.90;1.40;;;;;;;38.60;17.56;99506.86;105690;1271;73222;-79
2022/08/01 09:51:33;;;;;;;5.80;1.10;;;;;;;39.03;17.14;99505.00;105140;1274;68203;-75
2022/08/01 09:54:51;;;;;;;4.70;0.80;;;;;;;39.29;16.78;99503.17;105829;1271;71756;-78
2022/08/01 09:57:39;;;;;;;7.30;1.00;;;;;;;39.40;17.35;99506.52;105645;1271;60020;-77
2022/08/01 10:00:27;;;;;;;7.20;0.90;;;;;;;39.48;19.40;99513.02;105350;1271;60428;-78
2022/08/01 10:03:32;;;;;;;6.30;1.10;;;;;;;39.60;19.96;99512.52;105665;1271;73351;-75
2022/08/01 10:06:22;;;;;;;5.90;0.90;;;;;;;39.79;20.05;99507.07;106121;1271;68173;-81
2022/08/01 10:09:14;;;;;;;5.70;1.00;;;;;;;39.61;20.02;99513.88;105734;1271;71504;-77
2022/08/01 10:12:04;;;;;;;5.30;1.20;;;;;;;39.15;20.44;99512.89;105312;1275;59519;-77
2022/08/01 10:14:55;;;;;;;6.30;1.00;;;;;;;38.83;20.99;99505.58;105068;1271;60525;-78
2022/08/01 10:17:55;;;;;;;5.10;1.30;;;;;;;38.77;20.87;99509.15;105489;1274;73249;-78
2022/08/01 10:20:45;;;;;;;5.60;1.10;;;;;;;38.79;21.23;99508.00;105239;1271;68142;-77
2022/08/01 10:23:37;;;;;;;6.00;1.00;;;;;;;38.74;21.36;99507.60;105050;1271;71627;-77
2022/08/01 10:26:32;;;;;;;4.10;0.80;;;;;;;38.61;21.71;99508.05;104976;1277;59665;-78
2022/08/01 10:29:21;;;;;;;4.60;0.90;;;;;;;38.56;21.58;99508.88;105605;1274;59666;-77
2022/08/01 10:32:30;;;;;;;5.80;0.90;;;;;;;38.69;21.71;99511.08;105314;1271;73355;-74
2022/08/01 10:35:19;;;;;;;5.10;0.90;;;;;;;38.61;21.40;99508.05;105875;1271;68092;-78
2022/08/01 10:38:29;;;;;;;4.50;1.00;;;;;;;38.36;21.87;99507.44;106359;1271;73309;-81
2022/08/01 10:41:19;;;;;;;4.70;1.00;;;;;;;38.19;21.86;99509.23;105834;1271;59568;-78
2022/08/01 10:44:09;;;;;;;4.50;1.00;;;;;;;37.98;21.98;99510.86;105480;1271;61021;-79
2022/08/01 10:47:12;;;;;;;7.50;1.00;;;;;;;37.11;22.22;99507.45;105336;1271;73109;-77
2022/08/01 10:50:45;;;;;;;6.90;1.50;;;;;;;35.48;24.19;99504.74;105981;1271;66752;-76
2022/08/01 10:53:35;;;;;;;5.40;1.20;;;;;;;35.21;24.96;99506.13;105427;1274;71608;-76
2022/08/01 10:56:47;;;;;;;5.40;1.00;;;;;;;35.21;25.02;99506.70;105220;1274;59682;-80
2022/08/01 10:59:39;;;;;;;5.20;1.10;;;;;;;34.33;25.98;99505.77;107008;1271;59544;-77
2022/08/01 11:03:03;;;;;;;4.80;1.00;;;;;;;33.18;27.39;99509.73;105241;1271;73323;-77
2022/08/01 11:05:51;;;;;;;7.90;1.60;;;;;;;32.30;28.67;99509.15;105216;1271;67954;-78
2022/08/01 11:08:42;;;;;;;6.10;1.20;;;;;;;31.81;29.35;99509.69;105722;1271;71776;-78
2022/08/01 11:12:11;;;;;;;5.90;1.20;;;;;;;31.50;29.53;99510.16;104879;1274;59831;-79
2022/08/01 11:15:10;;;;;;;6.00;1.40;;;;;;;31.12;30.78;99512.57;106526;1271;59638;-82
2022/08/01 11:18:04;;;;;;;5.30;1.20;;;;;;;30.90;30.68;99515.52;106576;1271;71998;-77
2022/08/01 11:21:01;;;;;;;6.20;1.20;;;;;;;30.99;30.56;99517.06;106643;1271;68113;-78
2022/08/01 11:24:11;;;;;;;4.90;1.20;;;;;;;31.39;30.52;99517.45;106335;1274;74530;-79
2022/08/01 11:27:22;;;;;;;6.50;1.50;;;;;;;32.13;29.18;99516.35;106768;1273;59538;-78
2022/08/01 11:30:10;;;;;;;7.00;1.50;;;;;;;32.57;28.33;99519.58;106687;1271;60501;-77
2022/08/01 11:33:00;;;;;;;9.00;2.60;;;;;;;32.86;27.75;99519.95;106165;1271;73204;-76
2022/08/01 11:36:15;;;;;;;8.00;2.20;;;;;;;32.71;27.86;99521.48;106037;1271;68156;-78
2022/08/01 11:39:06;;;;;;;7.10;1.70;;;;;;;32.40;28.08;99518.66;106029;1271;71662;-77
2022/08/01 11:42:19;;;;;;;8.40;1.20;;;;;;;32.15;27.74;99517.57;105229;1271;59984;-79
2022/08/01 11:45:11;;;;;;;5.50;1.20;;;;;;;31.74;28.60;99520.85;105033;1271;59624;-76
2022/08/01 11:48:18;;;;;;;5.80;1.30;;;;;;;31.51;29.23;99522.15;105104;1271;72008;-78
2022/08/01 11:51:15;;;;;;;7.50;1.30;;;;;;;31.33;29.08;99526.77;105050;1271;66598;-77
2022/08/01 11:54:12;;;;;;;5.40;1.20;;;;;;;31.13;29.46;99525.54;105944;1271;72969;-75
2022/08/01 11:57:05;;;;;;;6.10;1.20;;;;;;;30.96;30.20;99529.56;105226;1271;60063;-77
2022/08/01 11:59:57;;;;;;;5.30;1.20;;;;;;;30.65;30.20;99526.11;104950;1274;59672;-77
2022/08/01 12:03:06;;;;;;;7.30;1.30;;;;;;;30.12;31.23;99527.45;105259;1274;71954;-77
2022/08/01 12:05:56;;;;;;;8.10;1.00;;;;;;;29.38;32.37;99525.21;105134;1271;66976;-76
2022/08/01 12:08:45;;;;;;;8.00;1.40;;;;;;;28.80;33.67;99535.17;105490;1271;71431;-76
2022/08/01 12:11:33;;;;;;;5.90;1.20;;;;;;;28.43;34.91;99535.96;105760;1271;59648;-77
2022/08/01 12:14:24;;;;;;;5.60;1.40;;;;;;;28.16;35.58;99535.77;106744;1271;60481;-79
2022/08/01 12:17:12;;;;;;;5.60;1.30;;;;;;;27.88;36.25;99537.94;105655;1271;73561;-76
2022/08/01 12:20:09;;;;;;;6.30;1.80;;;;;;;27.63;37.06;99536.93;105446;1272;66821;-78
2022/08/01 12:23:07;;;;;;;7.00;1.50;;;;;;;27.46;37.70;99538.30;105018;1271;71631;-76
2022/08/01 12:25:55;;;;;;;6.10;1.40;;;;;;;27.16;38.29;99532.98;105220;1274;59678;-74
2022/08/01 12:28:44;;;;;;;4.30;1.00;;;;;;;26.97;38.95;99540.12;104941;1271;59601;-73
2022/08/01 12:31:36;;;;;;;7.00;1.20;;;;;;;26.77;39.61;99536.30;104934;1271;73367;-74
2022/08/01 12:34:29;;;;;;;5.80;1.40;;;;;;;26.54;39.95;99539.75;105018;1271;68026;-75
2022/08/01 12:37:18;;;;;;;5.00;1.20;;;;;;;26.39;40.49;99544.97;105051;1271;71627;-73
2022/08/01 12:40:16;;;;;;;5.20;1.40;;;;;;;26.33;40.52;99540.41;104956;1271;59727;-74
2022/08/01 12:43:07;;;;;;;5.90;1.40;;;;;;;26.21;40.87;99543.17;104888;1274;60425;-74
2022/08/01 12:46:03;;;;;;;4.90;1.20;;;;;;;26.13;41.65;99544.77;105273;1271;72513;-74
2022/08/01 12:48:51;;;;;;;6.50;1.20;;;;;;;26.10;42.08;99545.79;105353;1271;67991;-75
2022/08/01 12:51:40;;;;;;;5.20;1.30;;;;;;;26.11;41.97;99547.23;105191;1271;71750;-73
2022/08/01 12:54:28;;;;;;;5.80;1.20;;;;;;;26.16;41.77;99545.23;105003;1272;59626;-74
2022/08/01 12:57:23;;;;;;;6.00;1.40;;;;;;;26.11;41.68;99548.03;105015;1271;59733;-73
2022/08/01 13:00:30;;;;;;;4.70;1.20;;;;;;;26.05;41.95;99551.66;105030;1271;74670;-75
2022/08/01 13:03:20;;;;;;;5.10;1.30;;;;;;;26.02;41.69;99546.02;104919;1271;66798;-74
2022/08/01 13:06:14;;;;;;;5.20;1.40;;;;;;;26.02;40.38;99553.70;105077;1271;72908;-74
2022/08/01 13:09:11;;;;;;;4.90;1.20;;;;;;;25.89;40.38;99555.80;105044;1271;59700;-75
2022/08/01 13:12:08;;;;;;;5.20;1.10;;;;;;;25.72;40.94;99558.34;105260;1271;59753;-74
2022/08/01 13:14:57;;;;;;;4.50;1.20;;;;;;;25.57;41.60;99560.77;105286;1271;73348;-74
2022/08/01 13:17:45;;;;;;;4.70;1.30;;;;;;;25.46;42.10;99560.42;105080;1271;68029;-74
2022/08/01 13:20:35;;;;;;;7.90;1.30;;;;;;;25.42;41.79;99561.67;104918;1273;72812;-74